Time;durP1;ratioP1;P1;durP2;ratioP2;P2;SDS_P1;SDS_P2;PMS_P1;PMS_P2;Temp;Humidity;BMP_temperature;BMP_pressure;BME280_temperature;BME280_humidity;BME280_pressure;Samples;Min_cycle;Max_cycle;Signal;HPM_P1;HPM_P2
2021/07/17 00:02:14;;;;;;;25.40;18.60;;;;;;;20.72;80.24;100308.91;10380974;28;20062;-74
2021/07/17 00:07:17;;;;;;;25.33;18.17;;;;;;;20.85;78.64;100320.44;10381714;28;20044;-74
2021/07/17 00:12:18;;;;;;;23.25;18.08;;;;;;;20.89;78.15;100309.47;10381877;28;20050;-74
2021/07/17 00:17:20;;;;;;;29.15;18.33;;;;;;;20.80;78.65;100315.44;10381188;28;20088;-74
2021/07/17 00:22:21;;;;;;;25.35;17.75;;;;;;;20.77;78.61;100314.81;10381479;28;20092;-74
2021/07/17 00:27:23;;;;;;;29.15;17.80;;;;;;;20.76;77.86;100311.28;10381711;28;20385;-74
2021/07/17 00:32:24;;;;;;;28.13;17.15;;;;;;;20.69;78.65;100306.47;10380880;28;20057;-75
2021/07/17 00:37:26;;;;;;;26.15;18.40;;;;;;;20.77;77.96;100290.78;10381090;28;20042;-74
2021/07/17 00:42:30;;;;;;;28.55;17.17;;;;;;;20.77;77.47;100291.63;10381428;28;20046;-74
2021/07/17 00:47:34;;;;;;;29.30;17.23;;;;;;;20.71;78.16;100302.72;10381582;28;20092;-74
2021/07/17 00:52:36;;;;;;;22.65;17.75;;;;;;;20.66;78.50;100304.84;10381080;28;20053;-74
2021/07/17 00:57:39;;;;;;;36.92;18.83;;;;;;;20.57;78.99;100297.47;10379980;28;20077;-74
2021/07/17 01:03:05;;;;;;;33.35;18.73;;;;;;;20.71;78.72;100318.75;10380535;28;20105;-74
2021/07/17 01:08:07;;;;;;;37.50;19.83;;;;;;;20.62;79.36;100320.22;10379673;28;20089;-75
2021/07/17 01:13:09;;;;;;;37.25;20.45;;;;;;;20.63;79.32;100308.59;10379423;28;20045;-74
2021/07/17 01:18:12;;;;;;;37.33;18.77;;;;;;;20.83;78.26;100306.34;10379957;28;20579;-74
2021/07/17 01:23:14;;;;;;;35.50;20.65;;;;;;;20.67;79.11;100301.22;10379771;28;20061;-74
2021/07/17 01:28:16;;;;;;;34.38;19.80;;;;;;;20.59;79.89;100295.56;10380027;28;20081;-75
2021/07/17 01:33:17;;;;;;;36.92;19.88;;;;;;;20.57;80.01;100297.47;10378966;28;20108;-73
2021/07/17 01:38:19;;;;;;;29.60;20.02;;;;;;;20.48;80.72;100279.44;10378548;28;20458;-74
2021/07/17 01:43:20;;;;;;;33.85;21.48;;;;;;;20.47;81.02;100272.34;10378333;28;20463;-75
2021/07/17 01:48:22;;;;;;;33.25;19.67;;;;;;;20.72;79.24;100266.16;10377315;28;20046;-74
2021/07/17 01:53:24;;;;;;;40.13;20.77;;;;;;;20.57;80.50;100274.28;10376955;28;20096;-74
2021/07/17 01:58:25;;;;;;;31.33;19.95;;;;;;;20.62;80.35;100263.28;10377637;28;20042;-74
2021/07/17 02:03:27;;;;;;;45.33;22.58;;;;;;;20.53;80.91;100259.44;10379095;28;20049;-73
2021/07/17 02:08:28;;;;;;;34.97;20.52;;;;;;;20.53;81.19;100272.78;10376982;28;20046;-74
2021/07/17 02:13:30;;;;;;;26.60;21.65;;;;;;;20.75;79.93;100276.66;10376845;28;20129;-74
2021/07/17 02:18:34;;;;;;;34.28;19.65;;;;;;;20.64;80.34;100266.72;10376984;28;20053;-74
2021/07/17 02:23:36;;;;;;;36.45;20.92;;;;;;;20.61;80.60;100259.78;10376643;28;20112;-74
2021/07/17 02:28:39;;;;;;;39.78;21.65;;;;;;;20.45;82.12;100269.75;10376102;28;20053;-74
2021/07/17 02:33:41;;;;;;;45.50;23.35;;;;;;;20.53;83.60;100264.78;10376115;28;20124;-73
2021/07/17 02:38:43;;;;;;;30.70;22.65;;;;;;;20.29;84.46;100258.44;10376255;28;20096;-73
2021/07/17 02:43:44;;;;;;;36.22;23.05;;;;;;;20.26;85.19;100255.97;10375977;28;20471;-72
2021/07/17 02:48:46;;;;;;;23.33;20.98;;;;;;;20.35;85.25;100256.19;10375353;28;20049;-73
2021/07/17 02:53:47;;;;;;;36.50;22.20;;;;;;;20.16;86.05;100263.78;10375054;28;20046;-73
2021/07/17 02:58:49;;;;;;;26.33;22.02;;;;;;;20.04;86.95;100273.44;10373423;28;20046;-73
2021/07/17 03:03:50;;;;;;;30.35;20.92;;;;;;;20.17;86.36;100262.81;10380025;28;20050;-74
2021/07/17 03:08:52;;;;;;;26.05;20.17;;;;;;;20.17;86.27;100274.34;10383407;28;20034;-74
2021/07/17 03:13:53;;;;;;;20.92;18.55;;;;;;;20.22;86.02;100263.34;10382238;28;20046;-74
2021/07/17 03:18:55;;;;;;;24.67;18.70;;;;;;;20.19;86.56;100260.03;10382237;28;20050;-76
2021/07/17 03:23:57;;;;;;;34.75;21.90;;;;;;;20.09;88.40;100268.66;10382516;28;20050;-74
2021/07/17 03:28:58;;;;;;;30.15;21.17;;;;;;;19.86;89.49;100266.69;10381068;28;20042;-75
2021/07/17 03:34:01;;;;;;;26.95;20.42;;;;;;;19.77;91.09;100278.81;10381259;28;20046;-74
2021/07/17 03:39:03;;;;;;;23.67;21.13;;;;;;;19.83;90.16;100278.44;10381916;28;20038;-74
2021/07/17 03:44:06;;;;;;;33.10;22.25;;;;;;;19.63;92.20;100284.22;10380843;28;20046;-74
2021/07/17 03:49:08;;;;;;;35.60;22.73;;;;;;;19.64;92.69;100283.25;10380691;28;20049;-74
2021/07/17 03:54:10;;;;;;;30.33;21.00;;;;;;;19.69;92.16;100283.78;10380856;28;20046;-74
2021/07/17 03:59:12;;;;;;;31.13;20.25;;;;;;;19.78;90.44;100287.66;10379542;28;20042;-75
2021/07/17 04:04:13;;;;;;;20.33;18.13;;;;;;;19.90;89.30;100286.88;10382087;28;20459;-74
2021/07/17 04:09:16;;;;;;;29.25;19.95;;;;;;;19.85;89.54;100276.50;10381364;28;20049;-74
2021/07/17 04:14:17;;;;;;;21.67;19.23;;;;;;;19.88;89.05;100272.78;10384258;28;20045;-73
2021/07/17 04:19:19;;;;;;;19.60;17.40;;;;;;;19.77;90.33;100269.97;10384699;28;20469;-72
2021/07/17 04:24:20;;;;;;;15.70;14.40;;;;;;;19.74;90.26;100275.50;10384080;28;20046;-72
2021/07/17 04:29:22;;;;;;;14.38;13.18;;;;;;;19.81;89.26;100268.81;10381162;28;20042;-73
2021/07/17 04:34:23;;;;;;;14.57;13.00;;;;;;;19.60;91.00;100263.91;10381262;28;20050;-73
2021/07/17 04:39:25;;;;;;;12.80;11.80;;;;;;;19.48;91.94;100270.03;10364248;28;20464;-72
2021/07/17 04:44:27;;;;;;;10.88;9.77;;;;;;;19.65;90.74;100267.13;10381494;28;20506;-74
2021/07/17 04:49:28;;;;;;;11.20;10.23;;;;;;;19.70;90.93;100260.66;10380720;28;20042;-74
2021/07/17 04:54:30;;;;;;;14.13;13.00;;;;;;;19.54;91.96;100261.63;10382627;28;20045;-73
2021/07/17 04:59:31;;;;;;;13.30;11.90;;;;;;;19.66;90.97;100265.34;10380745;28;20045;-74
2021/07/17 05:04:33;;;;;;;14.75;13.35;;;;;;;19.50;92.26;100265.44;10378896;28;20054;-73
2021/07/17 05:09:34;;;;;;;14.25;13.05;;;;;;;19.54;92.60;100261.63;10380140;28;20087;-74
2021/07/17 05:14:36;;;;;;;14.82;13.63;;;;;;;19.54;92.51;100263.44;10379527;28;20065;-73
2021/07/17 05:19:37;;;;;;;15.82;14.05;;;;;;;19.58;91.42;100259.63;10381384;28;20496;-74
2021/07/17 05:24:40;;;;;;;16.70;15.07;;;;;;;19.45;92.98;100256.06;10379552;28;20057;-73
2021/07/17 05:29:42;;;;;;;21.20;19.23;;;;;;;19.48;93.12;100264.72;10379321;28;20042;-75
2021/07/17 05:34:44;;;;;;;22.40;20.30;;;;;;;19.42;93.94;100254.41;10379229;28;20058;-74
2021/07/17 05:39:46;;;;;;;35.33;23.95;;;;;;;19.37;94.56;100256.53;10378999;28;20121;-73
2021/07/17 05:44:47;;;;;;;50.33;24.13;;;;;;;19.47;93.29;100262.97;10380026;28;20054;-73
2021/07/17 05:49:49;;;;;;;36.03;23.02;;;;;;;19.40;94.02;100261.69;10379069;28;20096;-75
2021/07/17 05:54:50;;;;;;;38.25;24.27;;;;;;;19.36;94.34;100270.81;10379632;28;20038;-74
2021/07/17 05:59:52;;;;;;;37.65;23.40;;;;;;;19.31;94.68;100284.44;10378331;28;20401;-74
2021/07/17 06:04:54;;;;;;;50.38;23.92;;;;;;;19.39;94.36;100284.81;10380302;28;20057;-74
2021/07/17 06:09:55;;;;;;;45.90;24.15;;;;;;;19.38;93.42;100287.56;10378523;28;20472;-74
2021/07/17 06:14:57;;;;;;;46.40;24.35;;;;;;;19.32;94.08;100299.47;10380655;28;20041;-74
2021/07/17 06:19:59;;;;;;;53.80;26.98;;;;;;;19.28;94.12;100297.97;10378747;28;20070;-74
2021/07/17 06:25:01;;;;;;;60.35;25.45;;;;;;;19.39;93.84;100305.28;10379090;28;20038;-75
2021/07/17 06:30:03;;;;;;;50.25;25.92;;;;;;;19.47;93.08;100307.44;10379753;28;20096;-74
2021/07/17 06:35:05;;;;;;;43.33;25.00;;;;;;;19.44;93.24;100302.34;10376808;28;20054;-75
2021/07/17 06:40:12;;;;;;;50.05;24.88;;;;;;;19.39;93.33;100308.81;10377229;28;20462;-75
2021/07/17 06:45:16;;;;;;;46.38;24.95;;;;;;;19.36;93.64;100316.13;10377239;28;20046;-75
2021/07/17 06:50:20;;;;;;;45.95;25.95;;;;;;;19.27;94.53;100319.41;10380239;28;20041;-75
2021/07/17 06:55:21;;;;;;;54.33;28.20;;;;;;;19.23;94.53;100336.53;10379396;28;20054;-75
2021/07/17 07:00:23;;;;;;;48.38;27.98;;;;;;;19.22;95.65;100325.00;10378732;28;20515;-75
2021/07/17 07:05:25;;;;;;;41.42;24.25;;;;;;;19.34;94.52;100331.34;10377440;28;20046;-73
2021/07/17 07:10:26;;;;;;;32.63;21.58;;;;;;;19.48;92.93;100317.16;10377408;28;20551;-74
2021/07/17 07:15:28;;;;;;;29.65;21.13;;;;;;;19.46;93.77;100324.41;10379483;28;20038;-74
2021/07/17 07:20:30;;;;;;;36.65;20.48;;;;;;;19.53;93.46;100320.41;10380014;28;20050;-76
2021/07/17 07:25:31;;;;;;;31.08;19.90;;;;;;;19.41;93.23;100328.22;10378308;28;20045;-74
2021/07/17 07:30:33;;;;;;;18.73;14.40;;;;;;;19.43;92.38;100328.09;10378315;28;20519;-74
2021/07/17 07:35:35;;;;;;;9.85;8.85;;;;;;;19.61;90.05;100316.31;10377788;28;20050;-75
2021/07/17 07:40:37;;;;;;;6.10;5.53;;;;;;;19.65;90.06;100317.81;10375182;28;20053;-75
2021/07/17 07:45:38;;;;;;;5.88;5.43;;;;;;;19.47;90.52;100323.44;10374399;28;20050;-75
2021/07/17 07:50:40;;;;;;;7.72;7.03;;;;;;;19.46;92.54;100333.25;10383225;28;20041;-74
2021/07/17 07:55:41;;;;;;;9.02;8.23;;;;;;;19.47;91.86;100321.63;10384420;28;20416;-75
2021/07/17 08:00:43;;;;;;;7.95;7.28;;;;;;;19.48;91.24;100325.16;10383240;28;20077;-75
2021/07/17 08:05:46;;;;;;;8.73;8.02;;;;;;;19.52;92.09;100330.22;10381052;28;20072;-75
2021/07/17 08:10:48;;;;;;;9.48;8.73;;;;;;;19.60;90.50;100335.03;10383088;28;20049;-76
2021/07/17 08:15:50;;;;;;;12.60;11.48;;;;;;;19.56;90.95;100339.69;10384006;28;20070;-76
2021/07/17 08:20:51;;;;;;;12.77;11.68;;;;;;;19.50;92.12;100347.25;10383031;28;20053;-74
2021/07/17 08:25:53;;;;;;;11.63;10.63;;;;;;;19.56;91.65;100346.84;10382303;28;20046;-76
2021/07/17 08:30:55;;;;;;;11.40;9.95;;;;;;;19.71;90.54;100345.06;10384048;28;20046;-76
2021/07/17 08:35:56;;;;;;;11.52;10.23;;;;;;;19.66;91.02;100348.03;10385162;28;20038;-74
2021/07/17 08:40:59;;;;;;;9.50;8.50;;;;;;;19.75;90.66;100352.75;10396695;28;20103;-75
2021/07/17 08:46:01;;;;;;;9.38;8.50;;;;;;;19.73;91.81;100345.78;10387815;28;20512;-74
2021/07/17 08:51:06;;;;;;;7.20;6.60;;;;;;;19.89;90.15;100346.53;10384070;28;20388;-75
2021/07/17 08:56:08;;;;;;;11.20;10.30;;;;;;;19.64;92.20;100344.56;10387563;28;20042;-74
2021/07/17 09:01:13;;;;;;;11.85;10.77;;;;;;;19.60;91.21;100343.91;10383005;28;20492;-74
2021/07/17 09:06:15;;;;;;;11.55;10.63;;;;;;;19.74;90.87;100343.03;10383210;28;20088;-75
2021/07/17 09:11:17;;;;;;;16.25;13.85;;;;;;;19.58;92.82;100339.63;10399371;28;20084;-74
2021/07/17 09:16:20;;;;;;;20.00;17.95;;;;;;;19.37;93.76;100355.16;10390530;28;20503;-74
2021/07/17 09:21:24;;;;;;;21.88;19.63;;;;;;;19.34;94.13;100358.00;10382701;28;20046;-75
2021/07/17 09:26:32;;;;;;;28.63;21.88;;;;;;;19.46;93.94;100353.72;10382247;28;20041;-74
2021/07/17 09:31:38;;;;;;;28.02;23.40;;;;;;;19.46;94.08;100356.38;10382024;28;20052;-75
2021/07/17 09:36:53;;;;;;;29.73;23.50;;;;;;;19.61;93.30;100350.97;10382791;28;20049;-75
2021/07/17 09:42:15;;;;;;;42.30;26.50;;;;;;;19.52;93.80;100353.31;10381662;28;20085;-75
2021/07/17 09:47:19;;;;;;;44.70;31.13;;;;;;;19.43;95.07;100346.75;10404548;28;20538;-75
2021/07/17 09:52:21;;;;;;;42.95;30.80;;;;;;;19.60;94.02;100346.56;10380984;28;20050;-74
2021/07/17 09:57:29;;;;;;;44.92;33.65;;;;;;;19.54;95.35;100346.94;10380872;28;20046;-75
2021/07/17 10:02:31;;;;;;;55.65;32.58;;;;;;;19.49;95.65;100348.22;10382701;28;20053;-76
2021/07/17 10:07:33;;;;;;;56.60;34.45;;;;;;;19.51;96.00;100341.81;10382511;28;20048;-75
2021/07/17 10:12:37;;;;;;;47.92;31.27;;;;;;;19.84;93.80;100337.97;10384229;28;20046;-75
2021/07/17 10:17:41;;;;;;;48.05;33.00;;;;;;;19.94;93.83;100346.22;10382592;28;20041;-74
2021/07/17 10:22:44;;;;;;;54.50;32.45;;;;;;;19.77;94.43;100337.50;10399731;28;20041;-75
2021/07/17 10:27:45;;;;;;;49.45;32.70;;;;;;;19.98;93.50;100332.56;10386709;28;20100;-76
2021/07/17 10:32:47;;;;;;;57.20;35.80;;;;;;;19.79;95.79;100326.72;10404009;28;20050;-76
2021/07/17 10:37:52;;;;;;;41.35;30.83;;;;;;;19.93;94.34;100315.16;10382520;28;20496;-75
2021/07/17 10:42:58;;;;;;;40.60;30.33;;;;;;;19.94;93.32;100314.19;10383109;28;20149;-76
2021/07/17 10:47:59;;;;;;;29.52;26.13;;;;;;;20.07;93.87;100323.94;10384262;28;20053;-75
2021/07/17 10:53:02;;;;;;;30.60;26.80;;;;;;;20.25;92.18;100316.53;10384469;28;20489;-76
2021/07/17 10:58:10;;;;;;;42.55;28.70;;;;;;;20.04;94.18;100318.81;10381989;28;20046;-75
2021/07/17 11:03:30;;;;;;;44.53;30.23;;;;;;;20.29;92.36;100319.84;10381421;28;20042;-75
2021/07/17 11:08:33;;;;;;;61.97;38.10;;;;;;;20.05;94.64;100319.66;10363229;28;20065;-76
2021/07/17 11:13:36;;;;;;;76.63;43.38;;;;;;;20.20;94.86;100307.97;10379846;28;20046;-76
2021/07/17 11:18:38;;;;;;;74.97;44.00;;;;;;;20.36;94.75;100313.13;10379089;28;20046;-75
2021/07/17 11:23:42;;;;;;;80.72;43.00;;;;;;;20.48;93.18;100308.81;10385348;28;20113;-75
2021/07/17 11:28:44;;;;;;;84.32;44.45;;;;;;;20.49;93.21;100300.66;10385871;28;20416;-74
2021/07/17 11:33:45;;;;;;;83.82;45.58;;;;;;;20.57;92.04;100301.00;10387246;28;20046;-75
2021/07/17 11:38:47;;;;;;;73.72;42.90;;;;;;;20.61;93.05;100296.31;10388626;28;20518;-74
2021/07/17 11:43:52;;;;;;;78.70;43.47;;;;;;;20.62;92.73;100300.69;10390041;28;20045;-74
2021/07/17 11:49:07;;;;;;;84.40;45.17;;;;;;;20.75;92.67;100298.88;10386198;28;20061;-74
2021/07/17 11:54:09;;;;;;;71.27;39.63;;;;;;;20.99;91.46;100287.44;10388169;28;20046;-75
2021/07/17 11:59:15;;;;;;;71.22;41.97;;;;;;;20.95;91.97;100285.94;10385735;28;20300;-74
2021/07/17 12:04:33;;;;;;;73.88;43.15;;;;;;;21.01;91.82;100282.81;10386049;28;20449;-73
2021/07/17 12:09:47;;;;;;;62.13;39.50;;;;;;;21.16;89.86;100287.94;10383740;28;20566;-73
2021/07/17 12:15:12;;;;;;;62.67;39.85;;;;;;;20.89;91.25;100293.44;10397457;28;20402;-74
2021/07/17 12:20:34;;;;;;;60.65;39.13;;;;;;;20.96;90.26;100290.31;10424645;28;20594;-73
2021/07/17 12:25:43;;;;;;;49.90;36.13;;;;;;;20.87;91.10;100287.31;10426842;28;20458;-72
2021/07/17 12:31:00;;;;;;;50.80;34.60;;;;;;;20.97;90.65;100286.69;10426229;28;20037;-74
2021/07/17 12:36:15;;;;;;;33.60;30.27;;;;;;;21.16;89.64;100279.03;10427019;28;20046;-74
2021/07/17 12:41:20;;;;;;;44.50;32.13;;;;;;;21.45;87.72;100276.13;10423294;28;20045;-72
2021/07/17 12:46:23;;;;;;;47.10;32.05;;;;;;;21.32;87.83;100278.84;10400095;28;20523;-73
2021/07/17 12:51:31;;;;;;;35.28;31.30;;;;;;;21.42;87.83;100267.34;10384493;28;20042;-72
2021/07/17 12:56:42;;;;;;;34.08;30.38;;;;;;;21.54;86.15;100267.41;10381942;28;20049;-72
2021/07/17 13:01:50;;;;;;;33.92;29.35;;;;;;;21.83;86.92;100265.28;10381951;28;20038;-70
2021/07/17 13:07:09;;;;;;;33.78;29.35;;;;;;;21.81;86.91;100273.38;10384241;28;20447;-72
2021/07/17 13:12:13;;;;;;;32.20;28.30;;;;;;;21.91;86.15;100262.84;10387959;28;20393;-71
2021/07/17 13:17:20;;;;;;;36.10;28.38;;;;;;;21.90;86.30;100267.34;10383022;28;20050;-70
2021/07/17 13:22:21;;;;;;;37.80;28.88;;;;;;;21.90;86.40;100250.44;10382960;28;20117;-71
2021/07/17 13:27:29;;;;;;;37.55;28.70;;;;;;;22.00;85.30;100254.16;10381760;28;20125;-70
2021/07/17 13:32:38;;;;;;;40.13;29.00;;;;;;;21.90;86.97;100250.44;10382037;28;20041;-73
2021/07/17 13:37:40;;;;;;;36.88;30.67;;;;;;;21.72;88.25;100249.16;10384400;28;20050;-73
2021/07/17 13:42:47;;;;;;;47.00;33.35;;;;;;;21.63;89.55;100238.16;10382994;28;20048;-73
2021/07/17 13:47:50;;;;;;;37.22;31.50;;;;;;;21.57;89.59;100240.47;10380946;28;20125;-74
2021/07/17 13:52:57;;;;;;;41.35;33.17;;;;;;;21.41;91.98;100243.41;10350003;28;20137;-73
2021/07/17 13:58:12;;;;;;;40.60;33.13;;;;;;;21.36;93.58;100240.22;10335304;28;20056;-73
2021/07/17 14:03:15;;;;;;;43.58;32.30;;;;;;;21.55;91.88;100239.69;10335083;28;20065;-74
2021/07/17 14:08:17;;;;;;;35.22;31.10;;;;;;;21.61;91.99;100253.50;10336034;28;20140;-73
2021/07/17 14:13:19;;;;;;;35.42;31.17;;;;;;;21.79;91.06;100247.72;10335958;28;20042;-73
2021/07/17 14:18:22;;;;;;;38.20;30.75;;;;;;;21.94;90.96;100245.72;10335755;28;20038;-75
2021/07/17 14:23:24;;;;;;;35.35;31.27;;;;;;;22.01;90.34;100241.63;10335318;28;20053;-76
2021/07/17 14:28:28;;;;;;;37.47;31.63;;;;;;;22.18;90.80;100227.81;10334731;28;20136;-75
2021/07/17 14:33:30;;;;;;;32.00;28.67;;;;;;;22.33;87.90;100223.09;10334765;28;20042;-76
2021/07/17 14:38:31;;;;;;;40.35;32.88;;;;;;;22.01;92.07;100237.09;10335496;28;20050;-74
2021/07/17 14:43:33;;;;;;;42.53;32.55;;;;;;;22.11;90.96;100232.75;10336297;28;20500;-75
2021/07/17 14:48:35;;;;;;;32.22;29.63;;;;;;;22.14;90.43;100221.84;10337165;28;20121;-75
2021/07/17 14:53:36;;;;;;;34.70;31.02;;;;;;;21.95;93.37;100231.34;10335115;28;20050;-77
2021/07/17 14:58:38;;;;;;;33.00;29.88;;;;;;;22.19;90.75;100212.63;10339016;28;20042;-76
2021/07/17 15:03:39;;;;;;;29.88;27.23;;;;;;;22.12;90.77;100213.06;10343711;28;20054;-76
2021/07/17 15:08:41;;;;;;;31.92;29.10;;;;;;;22.13;91.80;100203.22;10355373;28;20551;-74
2021/07/17 15:13:43;;;;;;;31.05;28.50;;;;;;;22.28;90.51;100210.06;10357670;28;20043;-75
2021/07/17 15:18:45;;;;;;;32.42;29.27;;;;;;;22.14;91.12;100202.25;10347227;28;20038;-74
2021/07/17 15:23:47;;;;;;;31.80;28.75;;;;;;;22.13;91.05;100190.69;10344463;28;20484;-74
2021/07/17 15:28:49;;;;;;;28.40;26.08;;;;;;;22.17;91.31;100194.81;10343693;28;20048;-72
2021/07/17 15:33:51;;;;;;;27.98;26.02;;;;;;;22.21;92.61;100198.13;10344555;28;20050;-73
2021/07/17 15:38:52;;;;;;;25.25;23.25;;;;;;;22.36;91.12;100198.75;10342070;28;20038;-72
2021/07/17 15:43:56;;;;;;;23.35;21.75;;;;;;;22.49;89.40;100202.19;10342119;28;20054;-75
2021/07/17 15:48:57;;;;;;;21.17;19.70;;;;;;;22.43;88.82;100183.91;10341016;28;20086;-72
2021/07/17 15:53:59;;;;;;;18.48;17.27;;;;;;;22.52;88.06;100190.34;10340703;28;20072;-73
2021/07/17 15:59:01;;;;;;;18.52;17.10;;;;;;;22.49;87.68;100187.91;10340763;28;20039;-74
2021/07/17 16:04:03;;;;;;;18.55;17.38;;;;;;;22.39;88.85;100185.13;10340540;28;20077;-73
2021/07/17 16:09:05;;;;;;;21.75;20.25;;;;;;;22.40;89.49;100160.91;10340761;28;20060;-73
2021/07/17 16:14:06;;;;;;;24.85;23.15;;;;;;;22.33;90.72;100170.38;10340607;28;20046;-73
2021/07/17 16:19:08;;;;;;;27.45;25.35;;;;;;;22.28;91.91;100164.53;10340166;28;20425;-72
2021/07/17 16:24:13;;;;;;;27.27;25.05;;;;;;;22.54;92.25;100162.50;10338073;28;20104;-72
2021/07/17 16:29:15;;;;;;;22.50;21.07;;;;;;;22.53;89.56;100154.56;10340502;28;20097;-73
2021/07/17 16:34:17;;;;;;;21.20;19.70;;;;;;;22.72;88.46;100162.00;10338521;28;20417;-73
2021/07/17 16:39:20;;;;;;;20.83;19.33;;;;;;;22.79;87.19;100152.47;10339905;28;20042;-71
2021/07/17 16:44:21;;;;;;;23.05;21.55;;;;;;;22.55;90.03;100158.84;10339320;28;20108;-73
2021/07/17 16:49:23;;;;;;;22.50;21.00;;;;;;;22.61;89.84;100160.16;10337666;28;20038;-72
2021/07/17 16:54:25;;;;;;;20.95;19.55;;;;;;;23.14;87.88;100155.84;10338401;28;20492;-73
2021/07/17 16:59:26;;;;;;;19.13;17.60;;;;;;;23.40;83.34;100148.31;10336915;28;20097;-73
2021/07/17 17:04:29;;;;;;;16.58;15.25;;;;;;;23.36;82.38;100135.28;10338155;28;20046;-74
2021/07/17 17:09:32;;;;;;;14.85;13.93;;;;;;;23.44;82.00;100140.03;10339161;28;20049;-74
2021/07/17 17:14:33;;;;;;;13.63;12.82;;;;;;;23.46;79.65;100138.03;10337542;28;20096;-74
2021/07/17 17:19:35;;;;;;;12.50;11.73;;;;;;;23.61;76.51;100148.34;10337051;28;20507;-74
2021/07/17 17:24:36;;;;;;;13.02;12.32;;;;;;;23.27;79.67;100153.00;10336349;28;20097;-74
2021/07/17 17:29:38;;;;;;;13.15;12.35;;;;;;;22.70;82.65;100146.03;10336166;28;20496;-74
2021/07/17 17:34:40;;;;;;;12.98;12.18;;;;;;;22.64;83.37;100138.50;10339217;28;20042;-74
2021/07/17 17:39:42;;;;;;;13.05;12.02;;;;;;;22.54;83.27;100143.75;10339255;28;20122;-74
2021/07/17 17:44:44;;;;;;;15.18;14.02;;;;;;;22.33;85.77;100161.50;10337593;28;20038;-74
2021/07/17 17:49:46;;;;;;;13.15;12.35;;;;;;;22.33;84.40;100166.84;10336052;28;20055;-74
2021/07/17 17:54:47;;;;;;;14.88;13.40;;;;;;;22.39;84.62;100158.34;10335825;28;20050;-74
2021/07/17 17:59:49;;;;;;;14.73;13.82;;;;;;;22.17;85.48;100159.16;10337617;28;20124;-74
2021/07/17 18:05:11;;;;;;;14.98;14.07;;;;;;;22.15;86.11;100161.13;10335942;28;20061;-74
2021/07/17 18:10:16;;;;;;;15.25;14.25;;;;;;;22.14;86.97;100154.91;10336844;28;20050;-73
2021/07/17 18:15:19;;;;;;;14.73;13.82;;;;;;;22.21;86.07;100147.25;10334925;28;20054;-74
2021/07/17 18:20:25;;;;;;;16.08;14.43;;;;;;;22.18;86.26;100147.50;10336718;28;20458;-74
2021/07/17 18:25:30;;;;;;;15.35;14.15;;;;;;;22.12;84.90;100153.31;10337283;28;20042;-73
2021/07/17 18:30:32;;;;;;;13.55;12.73;;;;;;;22.08;84.95;100166.06;10335427;28;20146;-74
2021/07/17 18:35:34;;;;;;;12.85;12.05;;;;;;;22.04;85.08;100171.75;10334750;28;20500;-73
2021/07/17 18:40:36;;;;;;;14.40;13.50;;;;;;;21.99;85.55;100184.66;10336047;28;20412;-73
2021/07/17 18:45:37;;;;;;;16.08;14.68;;;;;;;21.96;85.60;100175.06;10335101;28;20050;-74
2021/07/17 18:50:39;;;;;;;14.38;13.55;;;;;;;21.84;85.90;100182.19;10335143;28;20054;-73
2021/07/17 18:55:41;;;;;;;16.17;14.73;;;;;;;21.85;86.84;100183.88;10335763;28;20042;-73
2021/07/17 19:00:42;;;;;;;18.30;16.38;;;;;;;21.81;88.25;100178.88;10335788;28;20046;-75
2021/07/17 19:05:44;;;;;;;16.50;15.60;;;;;;;21.71;88.95;100175.22;10336246;28;20093;-74
2021/07/17 19:10:46;;;;;;;16.17;15.18;;;;;;;21.60;89.40;100190.25;10339475;28;20062;-75
2021/07/17 19:15:48;;;;;;;16.70;15.65;;;;;;;21.58;89.78;100197.53;10339214;28;20555;-74
2021/07/17 19:20:50;;;;;;;17.65;16.65;;;;;;;21.61;89.32;100204.50;10338218;28;20046;-74
2021/07/17 19:25:51;;;;;;;16.90;15.90;;;;;;;21.58;89.01;100197.53;10339064;28;20129;-74
2021/07/17 19:30:53;;;;;;;17.33;16.30;;;;;;;21.58;89.21;100196.69;10336958;28;20042;-73
2021/07/17 19:35:55;;;;;;;16.63;15.68;;;;;;;21.51;89.66;100195.44;10337137;28;20435;-73
2021/07/17 19:40:58;;;;;;;17.48;16.48;;;;;;;21.48;89.45;100199.19;10337724;28;20130;-74
2021/07/17 19:45:59;;;;;;;15.88;15.07;;;;;;;21.37;89.68;100199.97;10343128;28;20046;-74
2021/07/17 19:51:01;;;;;;;18.02;17.02;;;;;;;21.24;90.55;100200.97;10343985;28;20065;-71
2021/07/17 19:56:02;;;;;;;18.15;17.05;;;;;;;21.14;91.14;100204.31;10344165;28;20077;-72
2021/07/17 20:01:06;;;;;;;19.40;18.20;;;;;;;21.04;91.33;100213.97;10344101;28;20134;-72
2021/07/17 20:06:08;;;;;;;19.98;18.77;;;;;;;20.94;92.00;100201.38;10344697;28;20050;-73
2021/07/17 20:11:10;;;;;;;22.48;21.17;;;;;;;20.91;93.15;100192.63;10344372;28;20440;-72
2021/07/17 20:16:12;;;;;;;20.10;18.98;;;;;;;20.80;93.52;100202.38;10343543;28;20046;-73
2021/07/17 20:21:13;;;;;;;21.23;20.02;;;;;;;20.68;94.05;100201.44;10344672;28;20042;-72
2021/07/17 20:26:15;;;;;;;21.30;20.00;;;;;;;20.61;94.47;100193.00;10342687;28;20420;-71
2021/07/17 20:31:17;;;;;;;21.65;20.40;;;;;;;20.59;94.66;100204.78;10340371;28;20042;-72
2021/07/17 20:36:19;;;;;;;23.13;21.63;;;;;;;20.56;94.46;100204.97;10340045;28;20505;-71
2021/07/17 20:41:20;;;;;;;22.02;20.75;;;;;;;20.89;93.56;100199.91;10340476;28;20039;-72
2021/07/17 20:46:22;;;;;;;21.90;20.52;;;;;;;20.63;94.10;100200.94;10339606;28;20413;-72
2021/07/17 20:51:23;;;;;;;22.52;20.95;;;;;;;20.58;94.61;100195.03;10339539;28;20052;-72
2021/07/17 20:56:25;;;;;;;23.55;22.00;;;;;;;20.61;94.02;100211.69;10340730;28;20070;-71
2021/07/17 21:01:28;;;;;;;25.65;23.63;;;;;;;20.51;94.98;100215.13;10339367;28;20031;-71
2021/07/17 21:06:30;;;;;;;22.55;20.80;;;;;;;20.99;92.43;100207.25;10338673;28;20050;-72
2021/07/17 21:11:32;;;;;;;22.92;21.15;;;;;;;20.89;92.78;100215.94;10338073;28;20105;-72
2021/07/17 21:16:36;;;;;;;18.27;17.17;;;;;;;20.74;92.58;100222.38;10338132;28;20038;-72
2021/07/17 21:21:38;;;;;;;14.98;13.70;;;;;;;20.93;89.35;100229.91;10338158;28;20670;-72
2021/07/17 21:26:40;;;;;;;15.18;12.27;;;;;;;21.21;86.54;100234.16;10339008;28;20428;-71
2021/07/17 21:31:41;;;;;;;12.45;11.32;;;;;;;21.03;86.47;100236.31;10339303;28;20046;-73
2021/07/17 21:36:43;;;;;;;15.90;10.02;;;;;;;21.24;82.61;100238.41;10339533;28;20061;-71
2021/07/17 21:41:48;;;;;;;11.10;10.10;;;;;;;21.04;82.74;100247.88;10336370;28;20561;-72
2021/07/17 21:46:50;;;;;;;11.15;8.32;;;;;;;21.21;81.11;100249.34;10337095;28;20113;-72
2021/07/17 21:51:51;;;;;;;9.57;8.82;;;;;;;21.01;81.60;100248.94;10338710;28;20464;-71
2021/07/17 21:56:53;;;;;;;9.82;8.57;;;;;;;21.08;81.68;100252.88;10338200;28;20066;-72
2021/07/17 22:01:55;;;;;;;11.10;8.95;;;;;;;21.04;81.46;100271.91;10337645;28;20057;-72
2021/07/17 22:06:57;;;;;;;9.38;8.38;;;;;;;20.90;82.94;100264.91;10335700;28;20046;-73
2021/07/17 22:11:59;;;;;;;8.30;7.53;;;;;;;20.90;82.78;100275.59;10336519;28;20121;-72
2021/07/17 22:17:02;;;;;;;8.32;7.68;;;;;;;20.99;81.63;100282.09;10337732;28;20121;-73
2021/07/17 22:22:04;;;;;;;8.93;8.00;;;;;;;20.96;81.17;100282.31;10335729;28;20038;-73
2021/07/17 22:27:07;;;;;;;14.40;6.40;;;;;;;20.91;78.63;100293.31;10338573;28;20043;-73
2021/07/17 22:32:09;;;;;;;9.48;6.97;;;;;;;20.83;80.35;100290.31;10337160;28;20053;-72
2021/07/17 22:37:10;;;;;;;10.57;6.53;;;;;;;20.66;80.83;100303.03;10334794;28;20038;-72
2021/07/17 22:42:12;;;;;;;9.85;6.57;;;;;;;20.69;80.57;100314.47;10335382;28;20050;-72